sensor_id;sensor_type;location;lat;lon;timestamp;P1;durP1;ratioP1;P2;durP2;ratioP2
22995;SDS011;11664;49.774;8.650;2023-07-22T00:01:44;6.03;;;5.72;;
22995;SDS011;11664;49.774;8.650;2023-07-22T00:04:09;6.40;;;6.07;;
22995;SDS011;11664;49.774;8.650;2023-07-22T00:06:44;6.97;;;6.57;;
22995;SDS011;11664;49.774;8.650;2023-07-22T00:09:16;5.70;;;5.30;;
22995;SDS011;11664;49.774;8.650;2023-07-22T00:11:56;4.40;;;4.10;;
22995;SDS011;11664;49.774;8.650;2023-07-22T00:14:25;5.32;;;5.03;;
22995;SDS011;11664;49.774;8.650;2023-07-22T00:16:54;4.95;;;4.65;;
22995;SDS011;11664;49.774;8.650;2023-07-22T00:19:25;6.07;;;5.68;;
22995;SDS011;11664;49.774;8.650;2023-07-22T00:21:54;6.28;;;5.88;;
22995;SDS011;11664;49.774;8.650;2023-07-22T00:24:20;5.97;;;5.63;;
22995;SDS011;11664;49.774;8.650;2023-07-22T00:26:51;6.40;;;5.97;;
22995;SDS011;11664;49.774;8.650;2023-07-22T00:29:17;7.47;;;6.85;;
22995;SDS011;11664;49.774;8.650;2023-07-22T00:31:43;9.98;;;9.27;;
22995;SDS011;11664;49.774;8.650;2023-07-22T00:34:14;10.10;;;9.52;;
22995;SDS011;11664;49.774;8.650;2023-07-22T00:36:43;8.57;;;7.97;;
22995;SDS011;11664;49.774;8.650;2023-07-22T00:39:09;8.88;;;8.38;;
22995;SDS011;11664;49.774;8.650;2023-07-22T00:41:48;7.40;;;6.93;;
22995;SDS011;11664;49.774;8.650;2023-07-22T00:44:20;6.90;;;6.50;;
22995;SDS011;11664;49.774;8.650;2023-07-22T00:47:05;5.25;;;4.75;;
22995;SDS011;11664;49.774;8.650;2023-07-22T00:49:37;7.97;;;7.38;;
22995;SDS011;11664;49.774;8.650;2023-07-22T00:52:17;10.25;;;9.65;;
22995;SDS011;11664;49.774;8.650;2023-07-22T00:54:52;5.45;;;5.15;;
22995;SDS011;11664;49.774;8.650;2023-07-22T00:57:18;6.40;;;6.00;;
22995;SDS011;11664;49.774;8.650;2023-07-22T00:59:51;8.48;;;7.97;;
22995;SDS011;11664;49.774;8.650;2023-07-22T01:02:17;6.63;;;6.22;;
22995;SDS011;11664;49.774;8.650;2023-07-22T01:04:43;6.68;;;6.28;;
22995;SDS011;11664;49.774;8.650;2023-07-22T01:07:09;5.03;;;4.70;;
22995;SDS011;11664;49.774;8.650;2023-07-22T01:09:55;4.85;;;4.55;;
22995;SDS011;11664;49.774;8.650;2023-07-22T01:12:25;4.82;;;4.38;;
22995;SDS011;11664;49.774;8.650;2023-07-22T01:14:50;6.88;;;6.47;;
22995;SDS011;11664;49.774;8.650;2023-07-22T01:17:16;8.45;;;7.95;;
22995;SDS011;11664;49.774;8.650;2023-07-22T01:19:50;8.07;;;7.53;;
22995;SDS011;11664;49.774;8.650;2023-07-22T01:22:16;7.80;;;7.40;;
22995;SDS011;11664;49.774;8.650;2023-07-22T01:24:43;6.80;;;6.18;;
22995;SDS011;11664;49.774;8.650;2023-07-22T01:27:09;5.93;;;5.53;;
22995;SDS011;11664;49.774;8.650;2023-07-22T01:29:35;7.38;;;6.97;;
22995;SDS011;11664;49.774;8.650;2023-07-22T01:32:16;6.88;;;6.47;;
22995;SDS011;11664;49.774;8.650;2023-07-22T01:34:51;8.45;;;7.65;;
22995;SDS011;11664;49.774;8.650;2023-07-22T01:37:26;17.55;;;16.58;;
22995;SDS011;11664;49.774;8.650;2023-07-22T01:39:52;26.52;;;25.13;;
22995;SDS011;11664;49.774;8.650;2023-07-22T01:42:24;23.58;;;22.00;;
22995;SDS011;11664;49.774;8.650;2023-07-22T01:45:06;19.65;;;18.50;;
22995;SDS011;11664;49.774;8.650;2023-07-22T01:47:44;11.68;;;10.98;;
22995;SDS011;11664;49.774;8.650;2023-07-22T01:50:19;7.10;;;6.60;;
22995;SDS011;11664;49.774;8.650;2023-07-22T01:52:47;8.70;;;8.18;;
22995;SDS011;11664;49.774;8.650;2023-07-22T01:55:13;11.98;;;11.05;;
22995;SDS011;11664;49.774;8.650;2023-07-22T01:57:42;6.53;;;6.10;;
22995;SDS011;11664;49.774;8.650;2023-07-22T02:00:08;5.25;;;4.95;;
22995;SDS011;11664;49.774;8.650;2023-07-22T02:02:35;7.05;;;6.63;;
22995;SDS011;11664;49.774;8.650;2023-07-22T02:05:08;19.98;;;18.83;;
22995;SDS011;11664;49.774;8.650;2023-07-22T02:07:37;19.73;;;18.58;;
22995;SDS011;11664;49.774;8.650;2023-07-22T02:10:03;20.65;;;19.27;;
22995;SDS011;11664;49.774;8.650;2023-07-22T02:12:34;25.30;;;23.90;;
22995;SDS011;11664;49.774;8.650;2023-07-22T02:15:03;16.08;;;15.23;;
22995;SDS011;11664;49.774;8.650;2023-07-22T02:17:32;17.52;;;16.33;;
22995;SDS011;11664;49.774;8.650;2023-07-22T02:19:58;19.52;;;18.48;;
22995;SDS011;11664;49.774;8.650;2023-07-22T02:22:24;16.65;;;15.70;;
22995;SDS011;11664;49.774;8.650;2023-07-22T02:25:02;21.80;;;20.42;;
22995;SDS011;11664;49.774;8.650;2023-07-22T02:27:34;6.63;;;5.93;;
22995;SDS011;11664;49.774;8.650;2023-07-22T02:30:00;7.68;;;7.18;;
22995;SDS011;11664;49.774;8.650;2023-07-22T02:32:25;6.00;;;5.57;;
22995;SDS011;11664;49.774;8.650;2023-07-22T02:38:13;10.45;;;9.75;;
22995;SDS011;11664;49.774;8.650;2023-07-22T02:40:41;9.07;;;8.48;;
22995;SDS011;11664;49.774;8.650;2023-07-22T02:43:10;16.52;;;15.65;;
22995;SDS011;11664;49.774;8.650;2023-07-22T02:49:01;5.63;;;5.27;;
22995;SDS011;11664;49.774;8.650;2023-07-22T02:51:27;6.70;;;6.30;;
22995;SDS011;11664;49.774;8.650;2023-07-22T02:53:55;12.32;;;11.63;;
22995;SDS011;11664;49.774;8.650;2023-07-22T02:56:21;21.25;;;20.13;;
22995;SDS011;11664;49.774;8.650;2023-07-22T02:58:52;7.13;;;6.63;;
22995;SDS011;11664;49.774;8.650;2023-07-22T03:01:52;28.05;;;26.38;;
22995;SDS011;11664;49.774;8.650;2023-07-22T03:04:21;6.72;;;6.32;;
22995;SDS011;11664;49.774;8.650;2023-07-22T03:06:49;21.90;;;10.60;;
22995;SDS011;11664;49.774;8.650;2023-07-22T03:09:21;11.52;;;10.93;;
22995;SDS011;11664;49.774;8.650;2023-07-22T03:11:50;13.93;;;13.13;;
22995;SDS011;11664;49.774;8.650;2023-07-22T03:14:15;19.40;;;18.38;;
22995;SDS011;11664;49.774;8.650;2023-07-22T03:16:44;28.23;;;26.73;;
22995;SDS011;11664;49.774;8.650;2023-07-22T03:19:12;20.65;;;19.48;;
22995;SDS011;11664;49.774;8.650;2023-07-22T03:21:38;53.45;;;50.65;;
22995;SDS011;11664;49.774;8.650;2023-07-22T03:24:06;34.88;;;32.88;;
22995;SDS011;11664;49.774;8.650;2023-07-22T03:26:35;10.38;;;9.77;;
22995;SDS011;11664;49.774;8.650;2023-07-22T03:29:00;7.20;;;6.50;;
22995;SDS011;11664;49.774;8.650;2023-07-22T03:31:38;7.85;;;7.43;;
22995;SDS011;11664;49.774;8.650;2023-07-22T03:34:09;10.52;;;9.88;;
22995;SDS011;11664;49.774;8.650;2023-07-22T03:36:46;16.63;;;15.63;;
22995;SDS011;11664;49.774;8.650;2023-07-22T03:39:12;7.22;;;6.70;;
22995;SDS011;11664;49.774;8.650;2023-07-22T03:41:40;18.38;;;17.27;;
22995;SDS011;11664;49.774;8.650;2023-07-22T03:44:06;7.72;;;7.22;;
22995;SDS011;11664;49.774;8.650;2023-07-22T03:46:35;11.25;;;10.60;;
22995;SDS011;11664;49.774;8.650;2023-07-22T03:49:03;12.05;;;11.35;;
22995;SDS011;11664;49.774;8.650;2023-07-22T03:51:38;7.60;;;7.00;;
22995;SDS011;11664;49.774;8.650;2023-07-22T03:54:04;15.75;;;14.88;;
22995;SDS011;11664;49.774;8.650;2023-07-22T03:56:29;15.95;;;15.02;;
22995;SDS011;11664;49.774;8.650;2023-07-22T03:58:55;13.25;;;12.43;;
22995;SDS011;11664;49.774;8.650;2023-07-22T04:01:30;32.67;;;30.92;;
22995;SDS011;11664;49.774;8.650;2023-07-22T04:03:55;29.20;;;27.60;;
22995;SDS011;11664;49.774;8.650;2023-07-22T04:06:24;34.15;;;32.20;;
22995;SDS011;11664;49.774;8.650;2023-07-22T04:08:53;27.45;;;25.83;;
22995;SDS011;11664;49.774;8.650;2023-07-22T04:11:24;34.10;;;32.25;;
22995;SDS011;11664;49.774;8.650;2023-07-22T04:13:50;43.47;;;41.17;;
22995;SDS011;11664;49.774;8.650;2023-07-22T04:18:59;9.10;;;8.60;;
22995;SDS011;11664;49.774;8.650;2023-07-22T04:21:25;10.85;;;10.23;;
22995;SDS011;11664;49.774;8.650;2023-07-22T04:23:56;21.80;;;20.52;;
22995;SDS011;11664;49.774;8.650;2023-07-22T04:26:25;26.17;;;24.58;;
22995;SDS011;11664;49.774;8.650;2023-07-22T04:28:51;26.80;;;25.20;;
22995;SDS011;11664;49.774;8.650;2023-07-22T04:31:17;16.77;;;15.77;;
22995;SDS011;11664;49.774;8.650;2023-07-22T04:33:43;17.55;;;16.55;;
22995;SDS011;11664;49.774;8.650;2023-07-22T04:36:15;28.35;;;26.77;;
22995;SDS011;11664;49.774;8.650;2023-07-22T04:38:41;26.92;;;25.45;;
22995;SDS011;11664;49.774;8.650;2023-07-22T04:41:10;32.22;;;30.45;;
22995;SDS011;11664;49.774;8.650;2023-07-22T04:43:41;27.90;;;26.40;;
22995;SDS011;11664;49.774;8.650;2023-07-22T04:46:07;10.13;;;9.45;;
22995;SDS011;11664;49.774;8.650;2023-07-22T04:48:33;12.60;;;11.80;;
22995;SDS011;11664;49.774;8.650;2023-07-22T04:51:02;21.15;;;19.98;;
22995;SDS011;11664;49.774;8.650;2023-07-22T04:53:32;13.27;;;12.50;;
22995;SDS011;11664;49.774;8.650;2023-07-22T04:55:58;13.38;;;12.57;;
22995;SDS011;11664;49.774;8.650;2023-07-22T05:01:43;14.00;;;13.23;;
22995;SDS011;11664;49.774;8.650;2023-07-22T05:04:08;12.82;;;12.10;;
22995;SDS011;11664;49.774;8.650;2023-07-22T05:06:34;27.58;;;26.02;;
22995;SDS011;11664;49.774;8.650;2023-07-22T05:09:00;18.13;;;17.17;;
22995;SDS011;11664;49.774;8.650;2023-07-22T05:11:26;16.65;;;15.70;;
22995;SDS011;11664;49.774;8.650;2023-07-22T05:14:01;22.05;;;20.67;;
22995;SDS011;11664;49.774;8.650;2023-07-22T05:16:38;12.40;;;11.60;;
22995;SDS011;11664;49.774;8.650;2023-07-22T05:19:04;20.05;;;18.42;;
22995;SDS011;11664;49.774;8.650;2023-07-22T05:21:42;15.43;;;14.55;;
22995;SDS011;11664;49.774;8.650;2023-07-22T05:24:26;14.43;;;13.60;;
22995;SDS011;11664;49.774;8.650;2023-07-22T05:26:52;14.23;;;13.38;;
22995;SDS011;11664;49.774;8.650;2023-07-22T05:29:20;19.50;;;18.40;;
22995;SDS011;11664;49.774;8.650;2023-07-22T05:31:45;13.77;;;12.93;;
22995;SDS011;11664;49.774;8.650;2023-07-22T05:34:39;14.15;;;13.30;;
22995;SDS011;11664;49.774;8.650;2023-07-22T05:37:07;14.57;;;13.70;;
22995;SDS011;11664;49.774;8.650;2023-07-22T05:39:33;14.80;;;13.63;;
22995;SDS011;11664;49.774;8.650;2023-07-22T05:42:11;24.00;;;22.70;;
22995;SDS011;11664;49.774;8.650;2023-07-22T05:44:57;10.93;;;10.23;;
22995;SDS011;11664;49.774;8.650;2023-07-22T05:47:29;9.93;;;9.27;;
22995;SDS011;11664;49.774;8.650;2023-07-22T05:50:00;27.90;;;26.35;;
22995;SDS011;11664;49.774;8.650;2023-07-22T05:52:29;8.27;;;7.63;;
22995;SDS011;11664;49.774;8.650;2023-07-22T05:54:58;14.43;;;13.55;;
22995;SDS011;11664;49.774;8.650;2023-07-22T05:57:33;8.32;;;7.80;;
22995;SDS011;11664;49.774;8.650;2023-07-22T06:00:06;6.40;;;5.85;;
22995;SDS011;11664;49.774;8.650;2023-07-22T06:02:36;6.95;;;6.53;;
22995;SDS011;11664;49.774;8.650;2023-07-22T06:05:02;7.47;;;6.97;;
22995;SDS011;11664;49.774;8.650;2023-07-22T06:07:32;9.55;;;8.77;;
22995;SDS011;11664;49.774;8.650;2023-07-22T06:09:57;8.07;;;7.45;;
22995;SDS011;11664;49.774;8.650;2023-07-22T06:12:26;6.40;;;5.90;;
22995;SDS011;11664;49.774;8.650;2023-07-22T06:14:54;7.47;;;6.97;;
22995;SDS011;11664;49.774;8.650;2023-07-22T06:17:19;6.10;;;5.70;;
22995;SDS011;11664;49.774;8.650;2023-07-22T06:19:45;6.88;;;6.47;;
22995;SDS011;11664;49.774;8.650;2023-07-22T06:22:20;7.78;;;7.28;;
22995;SDS011;11664;49.774;8.650;2023-07-22T06:24:52;8.45;;;7.95;;
22995;SDS011;11664;49.774;8.650;2023-07-22T06:27:26;10.52;;;9.63;;
22995;SDS011;11664;49.774;8.650;2023-07-22T06:29:52;9.98;;;9.38;;
22995;SDS011;11664;49.774;8.650;2023-07-22T06:32:24;5.45;;;5.10;;
22995;SDS011;11664;49.774;8.650;2023-07-22T06:34:52;5.03;;;4.63;;
22995;SDS011;11664;49.774;8.650;2023-07-22T06:37:27;7.78;;;7.28;;
22995;SDS011;11664;49.774;8.650;2023-07-22T06:39:52;7.28;;;6.78;;
22995;SDS011;11664;49.774;8.650;2023-07-22T06:42:18;5.90;;;5.50;;
22995;SDS011;11664;49.774;8.650;2023-07-22T06:44:53;9.23;;;8.65;;
22995;SDS011;11664;49.774;8.650;2023-07-22T06:47:24;7.38;;;6.75;;
22995;SDS011;11664;49.774;8.650;2023-07-22T06:50:11;6.45;;;5.95;;
22995;SDS011;11664;49.774;8.650;2023-07-22T06:52:43;5.53;;;5.07;;
22995;SDS011;11664;49.774;8.650;2023-07-22T06:55:14;5.18;;;4.80;;
22995;SDS011;11664;49.774;8.650;2023-07-22T06:57:48;11.68;;;10.70;;
22995;SDS011;11664;49.774;8.650;2023-07-22T07:00:13;13.68;;;12.88;;
22995;SDS011;11664;49.774;8.650;2023-07-22T07:02:49;6.90;;;6.43;;
22995;SDS011;11664;49.774;8.650;2023-07-22T07:05:18;7.07;;;6.40;;
22995;SDS011;11664;49.774;8.650;2023-07-22T07:07:50;8.15;;;7.55;;
22995;SDS011;11664;49.774;8.650;2023-07-22T07:10:15;6.10;;;5.60;;
22995;SDS011;11664;49.774;8.650;2023-07-22T07:12:41;6.03;;;5.63;;
22995;SDS011;11664;49.774;8.650;2023-07-22T07:15:06;8.35;;;7.85;;
22995;SDS011;11664;49.774;8.650;2023-07-22T07:17:36;10.10;;;9.40;;
22995;SDS011;11664;49.774;8.650;2023-07-22T07:20:08;7.93;;;7.40;;
22995;SDS011;11664;49.774;8.650;2023-07-22T07:22:34;6.32;;;5.82;;
22995;SDS011;11664;49.774;8.650;2023-07-22T07:24:59;7.53;;;7.05;;
22995;SDS011;11664;49.774;8.650;2023-07-22T07:27:25;7.10;;;6.50;;
22995;SDS011;11664;49.774;8.650;2023-07-22T07:29:57;16.13;;;15.00;;
22995;SDS011;11664;49.774;8.650;2023-07-22T07:32:28;11.18;;;10.48;;
22995;SDS011;11664;49.774;8.650;2023-07-22T07:34:54;7.05;;;6.63;;
22995;SDS011;11664;49.774;8.650;2023-07-22T07:37:19;5.90;;;5.47;;
22995;SDS011;11664;49.774;8.650;2023-07-22T07:39:45;7.82;;;7.22;;
22995;SDS011;11664;49.774;8.650;2023-07-22T07:42:10;9.02;;;7.85;;
22995;SDS011;11664;49.774;8.650;2023-07-22T07:44:36;7.07;;;6.47;;
22995;SDS011;11664;49.774;8.650;2023-07-22T07:47:02;6.65;;;6.00;;
22995;SDS011;11664;49.774;8.650;2023-07-22T07:49:27;6.75;;;6.25;;
22995;SDS011;11664;49.774;8.650;2023-07-22T07:51:53;6.28;;;5.68;;
22995;SDS011;11664;49.774;8.650;2023-07-22T07:54:18;4.95;;;4.55;;
22995;SDS011;11664;49.774;8.650;2023-07-22T07:56:44;6.88;;;6.28;;
22995;SDS011;11664;49.774;8.650;2023-07-22T07:59:10;7.63;;;7.05;;
22995;SDS011;11664;49.774;8.650;2023-07-22T08:01:35;8.20;;;7.40;;
22995;SDS011;11664;49.774;8.650;2023-07-22T08:04:06;7.20;;;6.50;;
22995;SDS011;11664;49.774;8.650;2023-07-22T08:06:32;8.27;;;6.68;;
22995;SDS011;11664;49.774;8.650;2023-07-22T08:08:58;11.35;;;10.30;;
22995;SDS011;11664;49.774;8.650;2023-07-22T08:11:24;9.93;;;9.27;;
22995;SDS011;11664;49.774;8.650;2023-07-22T08:13:49;9.88;;;9.18;;
22995;SDS011;11664;49.774;8.650;2023-07-22T08:16:16;9.88;;;9.02;;
22995;SDS011;11664;49.774;8.650;2023-07-22T08:18:42;14.55;;;13.60;;
22995;SDS011;11664;49.774;8.650;2023-07-22T08:21:08;9.45;;;8.68;;
22995;SDS011;11664;49.774;8.650;2023-07-22T08:23:34;13.50;;;12.68;;
22995;SDS011;11664;49.774;8.650;2023-07-22T08:26:01;14.13;;;13.27;;
22995;SDS011;11664;49.774;8.650;2023-07-22T08:28:29;19.30;;;18.13;;
22995;SDS011;11664;49.774;8.650;2023-07-22T08:30:55;20.90;;;19.70;;
22995;SDS011;11664;49.774;8.650;2023-07-22T08:33:22;16.20;;;15.25;;
22995;SDS011;11664;49.774;8.650;2023-07-22T08:35:48;12.35;;;11.52;;
22995;SDS011;11664;49.774;8.650;2023-07-22T08:38:15;20.70;;;19.45;;
22995;SDS011;11664;49.774;8.650;2023-07-22T08:40:41;14.00;;;13.23;;
22995;SDS011;11664;49.774;8.650;2023-07-22T08:43:07;22.73;;;21.33;;
22995;SDS011;11664;49.774;8.650;2023-07-22T08:45:34;11.70;;;11.00;;
22995;SDS011;11664;49.774;8.650;2023-07-22T08:48:06;13.05;;;12.25;;
22995;SDS011;11664;49.774;8.650;2023-07-22T08:53:18;14.90;;;14.07;;
22995;SDS011;11664;49.774;8.650;2023-07-22T08:55:44;20.40;;;19.23;;
22995;SDS011;11664;49.774;8.650;2023-07-22T08:58:11;9.88;;;9.20;;
22995;SDS011;11664;49.774;8.650;2023-07-22T09:00:37;10.52;;;9.82;;
22995;SDS011;11664;49.774;8.650;2023-07-22T09:03:03;20.08;;;10.20;;
22995;SDS011;11664;49.774;8.650;2023-07-22T09:05:31;10.73;;;10.13;;
22995;SDS011;11664;49.774;8.650;2023-07-22T09:07:58;7.75;;;7.35;;
22995;SDS011;11664;49.774;8.650;2023-07-22T09:10:24;7.47;;;6.95;;
22995;SDS011;11664;49.774;8.650;2023-07-22T09:12:52;5.65;;;5.13;;
22995;SDS011;11664;49.774;8.650;2023-07-22T09:15:18;4.45;;;4.05;;
22995;SDS011;11664;49.774;8.650;2023-07-22T09:17:45;4.22;;;3.83;;
22995;SDS011;11664;49.774;8.650;2023-07-22T09:20:13;3.50;;;3.30;;
22995;SDS011;11664;49.774;8.650;2023-07-22T09:22:43;6.47;;;4.40;;
22995;SDS011;11664;49.774;8.650;2023-07-22T09:25:17;4.70;;;4.28;;
22995;SDS011;11664;49.774;8.650;2023-07-22T09:27:46;4.85;;;4.45;;
22995;SDS011;11664;49.774;8.650;2023-07-22T09:32:49;4.35;;;3.95;;
22995;SDS011;11664;49.774;8.650;2023-07-22T09:35:15;3.80;;;3.47;;
22995;SDS011;11664;49.774;8.650;2023-07-22T09:37:41;4.38;;;3.45;;
22995;SDS011;11664;49.774;8.650;2023-07-22T09:40:17;4.53;;;4.25;;
22995;SDS011;11664;49.774;8.650;2023-07-22T09:42:47;3.65;;;3.42;;
22995;SDS011;11664;49.774;8.650;2023-07-22T09:45:14;6.18;;;5.63;;
22995;SDS011;11664;49.774;8.650;2023-07-22T09:47:44;6.50;;;6.00;;
22995;SDS011;11664;49.774;8.650;2023-07-22T09:50:13;5.78;;;5.45;;
22995;SDS011;11664;49.774;8.650;2023-07-22T09:52:46;5.97;;;5.57;;
22995;SDS011;11664;49.774;8.650;2023-07-22T09:55:20;5.13;;;4.72;;
22995;SDS011;11664;49.774;8.650;2023-07-22T09:57:52;5.18;;;4.82;;
22995;SDS011;11664;49.774;8.650;2023-07-22T10:00:18;5.10;;;4.70;;
22995;SDS011;11664;49.774;8.650;2023-07-22T10:02:46;6.13;;;5.63;;
22995;SDS011;11664;49.774;8.650;2023-07-22T10:05:14;7.85;;;7.25;;
22995;SDS011;11664;49.774;8.650;2023-07-22T10:07:49;4.72;;;4.43;;
22995;SDS011;11664;49.774;8.650;2023-07-22T10:10:31;12.65;;;11.93;;
22995;SDS011;11664;49.774;8.650;2023-07-22T10:12:58;10.50;;;9.90;;
22995;SDS011;11664;49.774;8.650;2023-07-22T10:15:31;20.58;;;19.40;;
22995;SDS011;11664;49.774;8.650;2023-07-22T10:18:00;15.60;;;14.75;;
22995;SDS011;11664;49.774;8.650;2023-07-22T10:20:27;11.70;;;10.98;;
22995;SDS011;11664;49.774;8.650;2023-07-22T10:22:54;8.25;;;7.70;;
22995;SDS011;11664;49.774;8.650;2023-07-22T10:25:20;10.60;;;10.00;;
22995;SDS011;11664;49.774;8.650;2023-07-22T10:27:47;11.55;;;10.75;;
22995;SDS011;11664;49.774;8.650;2023-07-22T10:30:14;7.85;;;7.35;;
22995;SDS011;11664;49.774;8.650;2023-07-22T10:32:42;7.22;;;5.55;;
22995;SDS011;11664;49.774;8.650;2023-07-22T10:35:12;4.10;;;3.80;;
22995;SDS011;11664;49.774;8.650;2023-07-22T10:37:44;4.53;;;4.13;;
22995;SDS011;11664;49.774;8.650;2023-07-22T10:40:25;4.30;;;4.00;;
22995;SDS011;11664;49.774;8.650;2023-07-22T10:43:02;4.55;;;4.22;;
22995;SDS011;11664;49.774;8.650;2023-07-22T10:45:30;21.45;;;5.05;;
22995;SDS011;11664;49.774;8.650;2023-07-22T10:48:08;4.43;;;4.03;;
22995;SDS011;11664;49.774;8.650;2023-07-22T11:04:09;4.40;;;4.10;;
22995;SDS011;11664;49.774;8.650;2023-07-22T11:11:55;4.47;;;4.17;;
22995;SDS011;11664;49.774;8.650;2023-07-22T11:14:23;6.43;;;5.43;;
22995;SDS011;11664;49.774;8.650;2023-07-22T11:16:50;5.72;;;5.22;;
22995;SDS011;11664;49.774;8.650;2023-07-22T11:19:17;4.72;;;4.32;;
22995;SDS011;11664;49.774;8.650;2023-07-22T11:21:44;6.90;;;5.88;;
22995;SDS011;11664;49.774;8.650;2023-07-22T11:24:11;4.97;;;4.68;;
22995;SDS011;11664;49.774;8.650;2023-07-22T11:26:37;5.60;;;4.57;;
22995;SDS011;11664;49.774;8.650;2023-07-22T11:29:03;5.15;;;4.85;;
22995;SDS011;11664;49.774;8.650;2023-07-22T11:31:32;5.20;;;4.80;;
22995;SDS011;11664;49.774;8.650;2023-07-22T11:33:59;5.35;;;4.85;;
22995;SDS011;11664;49.774;8.650;2023-07-22T11:36:25;6.22;;;4.60;;
22995;SDS011;11664;49.774;8.650;2023-07-22T11:38:51;7.28;;;6.78;;
22995;SDS011;11664;49.774;8.650;2023-07-22T11:41:17;10.75;;;10.05;;
22995;SDS011;11664;49.774;8.650;2023-07-22T11:43:43;12.85;;;12.02;;
22995;SDS011;11664;49.774;8.650;2023-07-22T11:46:08;10.63;;;10.02;;
22995;SDS011;11664;49.774;8.650;2023-07-22T11:48:34;15.20;;;14.30;;
22995;SDS011;11664;49.774;8.650;2023-07-22T11:51:00;10.95;;;10.25;;
22995;SDS011;11664;49.774;8.650;2023-07-22T11:53:26;6.03;;;5.55;;
22995;SDS011;11664;49.774;8.650;2023-07-22T11:55:57;4.65;;;4.35;;
22995;SDS011;11664;49.774;8.650;2023-07-22T11:58:26;5.30;;;4.28;;
22995;SDS011;11664;49.774;8.650;2023-07-22T12:01:02;8.60;;;3.95;;
22995;SDS011;11664;49.774;8.650;2023-07-22T12:03:33;6.25;;;5.88;;
22995;SDS011;11664;49.774;8.650;2023-07-22T12:06:08;5.43;;;4.80;;
22995;SDS011;11664;49.774;8.650;2023-07-22T12:08:34;6.13;;;5.53;;
22995;SDS011;11664;49.774;8.650;2023-07-22T12:11:03;5.78;;;5.38;;
22995;SDS011;11664;49.774;8.650;2023-07-22T12:13:29;5.35;;;4.95;;
22995;SDS011;11664;49.774;8.650;2023-07-22T12:21:08;4.32;;;3.85;;
22995;SDS011;11664;49.774;8.650;2023-07-22T12:23:34;7.78;;;6.97;;
22995;SDS011;11664;49.774;8.650;2023-07-22T12:26:01;3.72;;;3.53;;
22995;SDS011;11664;49.774;8.650;2023-07-22T12:28:26;5.20;;;4.80;;
22995;SDS011;11664;49.774;8.650;2023-07-22T12:30:52;4.43;;;4.13;;
22995;SDS011;11664;49.774;8.650;2023-07-22T12:33:17;4.38;;;4.07;;
22995;SDS011;11664;49.774;8.650;2023-07-22T12:35:43;4.60;;;4.03;;
22995;SDS011;11664;49.774;8.650;2023-07-22T12:38:08;7.03;;;4.20;;
22995;SDS011;11664;49.774;8.650;2023-07-22T12:40:34;5.78;;;4.00;;
22995;SDS011;11664;49.774;8.650;2023-07-22T12:42:59;3.63;;;3.30;;
22995;SDS011;11664;49.774;8.650;2023-07-22T12:45:25;3.85;;;3.45;;
22995;SDS011;11664;49.774;8.650;2023-07-22T12:47:50;3.80;;;3.60;;
22995;SDS011;11664;49.774;8.650;2023-07-22T12:50:16;4.35;;;3.95;;
22995;SDS011;11664;49.774;8.650;2023-07-22T12:52:41;3.60;;;3.30;;
22995;SDS011;11664;49.774;8.650;2023-07-22T12:55:07;3.92;;;3.58;;
22995;SDS011;11664;49.774;8.650;2023-07-22T12:57:33;4.30;;;3.97;;
22995;SDS011;11664;49.774;8.650;2023-07-22T12:59:58;4.40;;;4.00;;
22995;SDS011;11664;49.774;8.650;2023-07-22T13:02:24;7.82;;;4.40;;
22995;SDS011;11664;49.774;8.650;2023-07-22T13:04:51;7.72;;;6.95;;
22995;SDS011;11664;49.774;8.650;2023-07-22T13:07:16;4.35;;;4.05;;
22995;SDS011;11664;49.774;8.650;2023-07-22T13:09:41;4.07;;;3.78;;
22995;SDS011;11664;49.774;8.650;2023-07-22T13:12:08;4.93;;;4.60;;
22995;SDS011;11664;49.774;8.650;2023-07-22T13:14:34;4.93;;;4.53;;
22995;SDS011;11664;49.774;8.650;2023-07-22T13:16:59;4.40;;;4.00;;
22995;SDS011;11664;49.774;8.650;2023-07-22T13:19:25;6.93;;;6.50;;
22995;SDS011;11664;49.774;8.650;2023-07-22T13:21:50;4.18;;;3.63;;
22995;SDS011;11664;49.774;8.650;2023-07-22T13:24:16;3.88;;;3.58;;
22995;SDS011;11664;49.774;8.650;2023-07-22T13:26:42;5.05;;;4.65;;
22995;SDS011;11664;49.774;8.650;2023-07-22T13:29:07;5.28;;;4.78;;
22995;SDS011;11664;49.774;8.650;2023-07-22T13:31:34;4.65;;;3.90;;
22995;SDS011;11664;49.774;8.650;2023-07-22T13:33:59;6.20;;;5.80;;
22995;SDS011;11664;49.774;8.650;2023-07-22T13:36:25;4.85;;;4.55;;
22995;SDS011;11664;49.774;8.650;2023-07-22T13:38:50;5.63;;;5.03;;
22995;SDS011;11664;49.774;8.650;2023-07-22T13:41:16;4.97;;;4.57;;
22995;SDS011;11664;49.774;8.650;2023-07-22T13:43:41;4.50;;;4.22;;
22995;SDS011;11664;49.774;8.650;2023-07-22T13:46:07;3.65;;;3.38;;
22995;SDS011;11664;49.774;8.650;2023-07-22T13:48:33;3.80;;;3.40;;
22995;SDS011;11664;49.774;8.650;2023-07-22T13:50:59;3.88;;;3.65;;
22995;SDS011;11664;49.774;8.650;2023-07-22T13:53:24;3.85;;;3.55;;
22995;SDS011;11664;49.774;8.650;2023-07-22T13:55:50;4.70;;;4.13;;
22995;SDS011;11664;49.774;8.650;2023-07-22T13:58:15;4.00;;;3.55;;
22995;SDS011;11664;49.774;8.650;2023-07-22T14:00:41;5.78;;;5.22;;
22995;SDS011;11664;49.774;8.650;2023-07-22T14:03:06;4.28;;;3.72;;
22995;SDS011;11664;49.774;8.650;2023-07-22T14:05:32;7.60;;;4.22;;
22995;SDS011;11664;49.774;8.650;2023-07-22T14:07:57;7.63;;;7.10;;
22995;SDS011;11664;49.774;8.650;2023-07-22T14:10:23;6.57;;;6.07;;
22995;SDS011;11664;49.774;8.650;2023-07-22T14:12:48;4.22;;;3.83;;
22995;SDS011;11664;49.774;8.650;2023-07-22T14:15:14;4.32;;;4.03;;
22995;SDS011;11664;49.774;8.650;2023-07-22T14:17:40;4.88;;;4.40;;
22995;SDS011;11664;49.774;8.650;2023-07-22T14:20:05;4.82;;;4.43;;
22995;SDS011;11664;49.774;8.650;2023-07-22T14:22:32;4.95;;;4.25;;
22995;SDS011;11664;49.774;8.650;2023-07-22T14:24:57;4.43;;;3.75;;
22995;SDS011;11664;49.774;8.650;2023-07-22T14:27:23;6.55;;;4.75;;
22995;SDS011;11664;49.774;8.650;2023-07-22T14:29:49;5.35;;;4.95;;
22995;SDS011;11664;49.774;8.650;2023-07-22T14:32:14;4.70;;;4.30;;
22995;SDS011;11664;49.774;8.650;2023-07-22T14:34:41;4.78;;;4.40;;
22995;SDS011;11664;49.774;8.650;2023-07-22T14:37:07;4.60;;;4.25;;
22995;SDS011;11664;49.774;8.650;2023-07-22T14:39:32;5.55;;;5.03;;
22995;SDS011;11664;49.774;8.650;2023-07-22T14:41:58;6.13;;;5.72;;
22995;SDS011;11664;49.774;8.650;2023-07-22T14:44:23;9.32;;;5.78;;
22995;SDS011;11664;49.774;8.650;2023-07-22T14:46:49;4.43;;;4.13;;
22995;SDS011;11664;49.774;8.650;2023-07-22T14:49:15;6.97;;;6.55;;
22995;SDS011;11664;49.774;8.650;2023-07-22T14:51:40;5.65;;;5.25;;
22995;SDS011;11664;49.774;8.650;2023-07-22T14:54:06;7.75;;;6.47;;
22995;SDS011;11664;49.774;8.650;2023-07-22T14:56:31;5.47;;;5.00;;
22995;SDS011;11664;49.774;8.650;2023-07-22T14:58:57;5.35;;;4.63;;
22995;SDS011;11664;49.774;8.650;2023-07-22T15:01:22;5.00;;;4.70;;
22995;SDS011;11664;49.774;8.650;2023-07-22T15:03:48;4.35;;;3.95;;
22995;SDS011;11664;49.774;8.650;2023-07-22T15:06:14;5.05;;;4.65;;
22995;SDS011;11664;49.774;8.650;2023-07-22T15:08:39;5.90;;;5.43;;
22995;SDS011;11664;49.774;8.650;2023-07-22T15:11:05;5.60;;;5.10;;
22995;SDS011;11664;49.774;8.650;2023-07-22T15:13:30;6.10;;;5.60;;
22995;SDS011;11664;49.774;8.650;2023-07-22T15:15:56;5.75;;;5.25;;
22995;SDS011;11664;49.774;8.650;2023-07-22T15:18:22;4.97;;;4.60;;
22995;SDS011;11664;49.774;8.650;2023-07-22T15:20:49;5.25;;;4.78;;
22995;SDS011;11664;49.774;8.650;2023-07-22T15:23:17;4.32;;;3.92;;
22995;SDS011;11664;49.774;8.650;2023-07-22T15:25:43;5.10;;;4.65;;
22995;SDS011;11664;49.774;8.650;2023-07-22T15:28:09;8.50;;;5.53;;
22995;SDS011;11664;49.774;8.650;2023-07-22T15:30:34;4.57;;;4.18;;